Thurston, OH (43157)

6:37 PM EDT on August 21, 2014 (GMT -0400)
Northern Lancaster Area | Change Station
CLOSE
Current Station
Personal Weather Station
Location: Lancaster, OH
Elevation: 994 ft
Nearby Weather Stations

Elev 994 ft 39.76 °N, 82.57 °W | Updated 12 seconds ago

Mostly Cloudy
Mostly Cloudy
72.9 °F
Feels Like 72.9 °F
N
3.0
Wind Variable Wind from South
Gusts 5.0 mph

Today
High -- | Low -- °F
--% Chance of Precip.
Yesterday
High -- | Low -- °F
Precip. -- in
6:47 AM 8:18 PM
Waning Crescent, 12% visible
Pressure 30.02 in
Visibility 10.0 miles
Clouds Few 4100 ft
Mostly Cloudy 11000 ft
Dew Point 72 °F
Humidity 99%
Rainfall 0.43 in
Snow Depth Not available.
UV 1 out of 12
Pollen 7.80 out of 12
Ozone Good
PM2.5 Good
Flu Activity Not available.
METAR KLHQ 212153Z AUTO 24007KT 200V260 10SM FEW041 BKN110 23/21 A3003 RMK AO2 RAE2054B12E38 PRESRR SLP164 P0002 T02330211

More Conditions Fewer Conditions

Pressure 30.02 in
Visibility 10.0 miles
Clouds Few 4100 ft
Mostly Cloudy 11000 ft
Dew Point 72 °F
Humidity 99%
Rainfall 0.43 in
Snow Depth Not available.
UV 1 out of 12
Pollen 7.80 out of 12
Ozone Good
PM2.5 Good
Flu Activity Not available.
METAR KLHQ 212153Z AUTO 24007KT 200V260 10SM FEW041 BKN110 23/21 A3003 RMK AO2 RAE2054B12E38 PRESRR SLP164 P0002 T02330211

More Conditions Fewer Conditions

10-Day Weather Forecast

Almanac

Astronomy

Aug. 21, 2014 Rise Set
Actual Time 6:47 AM EDT 8:18 PM EDT
Civil Twilight 6:19 AM EDT 8:46 PM EDT
Nautical Twilight 5:45 AM EDT 9:20 PM EDT
Astronomical Twilight 5:08 AM EDT 9:56 PM EDT
Moon 3:17 AM EDT 5:45 PM EDT
Length of Visible Light 14h 27m
Length of Day
13h 30m
Tomorrow will be 2m 24s shorter.
Waning Crescent, 12% of the Moon is Illuminated
Today
Waning Crescent
Aug 25
New
Sep 2
First Quarter
Sep 8
Full
Sep 15
Last Quarter

Today's Extremes

State Highs State Lows

Community

WunderPhotos

Upload Photos

1,746,041 photos uploaded!

WunderBlogs® & News

Nearby

Air Quality

  Air Quality AQ Index Pollutant
Yesterday Good
PM2.5
Yesterday Good
OZONE
Current Good
OZONE
Current Good
PM2.5
Thursday Good
OZONE
Thursday Good
PM2.5
Friday Moderate
PM2.5
Friday Good
OZONE
Saturday Moderate
OZONE
Saturday Moderate
PM2.5
Sunday Moderate
OZONE
Sunday Moderate
PM2.5
Monday Moderate
OZONE
Monday Moderate
PM2.5
Tuesday Moderate
OZONE
Tuesday Moderate
PM2.5

Snow Depth

Station Depth Elevation
No new snow has been reported.

Earthquake Activity

City Distance Mag. Time & Date
No recent earthquake activity has been reported nearby.
Minimum magnitude displayed is 2.5.

Coastal Water Temperatures

Place Temperature
No Stations Reporting

Nearby Weather Stations